Last 7 Days

Kelseyville

Hourly Data | America/Los_Angeles
as of 5/7/26 10:59 AM PDT
Date & Time Temp (°F) RH (%) Dew Pt (°F) Wet Bulb (°F) Wind Dir (°) Wind Spd (mph) Wind Gust (mph) Leaf Wet (mins) Solar Rad (W/m2) ETo Hr (In) BatVolt (V) Latest Rain (In) Max Rain Intensity (In/Hr) Precip 24Hr (In) Storm Total (In) Daily Rain (In) Daily Min Temp (°F) Daily Max Temp (°F) Daily Leaf Wet (Hrs) Daily ETo (in)
5/7/26 - 1000 62.9 81 56.8 60.4 N | 10 3.1 7.0 0.0 598 0.013 13.0 0.00 - - - 0.00 44.9 65.6 5.8 0.021
5/7/26 - 0900 58.4 89 55.3 57.8 NE | 40 1.6 7.5 0.0 340 0.007 13.1 0.00 - - - 0.00 44.9 60.3 5.8 0.008
5/7/26 - 0800 51.4 97 50.6 51.4 SW | 231 0.4 2.0 37.6 110 0.002 12.5 0.00 - - - 0.00 44.9 56.1 5.8 0.002
5/7/26 - 0700 45.7 97 44.8 45.7 SSW | 198 0.2 1.5 60.0 22 0.000 12.3 0.00 - - - 0.00 44.9 51.8 5.1 0.000
5/7/26 - 0600 46.2 96 45.3 46.2 S | 188 0.5 2.2 60.0 0 0.000 12.3 0.00 - - - 0.00 45.4 51.8 4.1 0.000
5/7/26 - 0500 47.0 96 45.9 47.0 SSW | 192 1.1 3.3 60.0 0 0.000 12.3 0.00 - - - 0.00 46.4 51.8 3.1 0.000
5/7/26 - 0400 48.0 95 46.7 47.9 E | 91 0.3 3.1 60.0 0 0.000 12.3 0.00 - - - 0.00 46.9 51.8 2.1 0.000
5/7/26 - 0300 49.0 94 47.5 48.8 SSW | 206 0.6 2.4 60.0 0 0.000 12.3 0.00 - - - 0.00 48.2 51.8 1.1 0.000
5/7/26 - 0200 50.7 93 48.8 50.4 SW | 219 0.6 2.2 8.2 0 0.000 12.3 0.00 - - - 0.00 49.7 51.8 0.1 0.000
5/7/26 - 0100 53.2 92 50.9 52.8 S | 178 0.8 2.6 0.0 0 0.000 12.3 0.00 - - - 0.00 51.8 79.7 0.0 0.176
5/7/26 - 0000 54.4 88 50.8 53.3 SSW | 200 0.9 2.6 0.0 0 0.000 12.3 0.00 - - - 0.00 53.4 79.7 0.0 0.176
5/6/26 - 2300 58.1 83 52.9 56.1 S | 181 1.2 2.8 0.0 0 0.000 12.3 0.00 - - - 0.00 55.1 79.7 0.0 0.176
5/6/26 - 2200 61.3 76 53.7 57.7 S | 180 2.6 5.5 0.0 0 0.000 12.4 0.00 - - - 0.00 55.1 79.7 0.0 0.176
5/6/26 - 2100 65.5 70 55.3 60.2 SSW | 201 2.0 5.0 0.0 2 0.000 12.4 0.00 - - - 0.00 55.1 79.7 0.0 0.176
5/6/26 - 2000 71.8 58 56.2 62.4 WNW | 286 4.9 11.6 0.0 77 0.002 12.4 0.00 - - - 0.00 55.1 79.7 0.0 0.176
5/6/26 - 1900 76.8 51 57.6 64.4 WNW | 284 6.3 13.4 0.0 253 0.008 13.0 0.00 - - - 0.00 55.1 79.7 0.0 0.174
5/6/26 - 1800 78.8 48 57.6 64.8 NW | 315 4.6 11.0 0.0 446 0.013 12.9 0.00 - - - 0.00 55.1 79.7 0.0 0.166
5/6/26 - 1700 77.1 50 57.2 64.3 N | 349 3.9 8.3 0.0 636 0.018 12.9 0.00 - - - 0.00 55.1 78.7 0.0 0.152
5/6/26 - 1600 75.1 53 57.0 63.8 N | 11 4.5 11.2 0.0 762 0.021 12.9 0.00 - - - 0.00 55.1 76.4 0.0 0.135
5/6/26 - 1500 72.1 56 55.6 62.2 NNE | 32 4.3 10.1 0.0 890 0.023 12.9 0.00 - - - 0.00 55.1 74.6 0.0 0.114
5/6/26 - 1400 69.2 59 54.4 60.6 NNE | 30 5.2 11.8 0.0 945 0.023 13.0 0.00 - - - 0.00 55.1 71.3 0.0 0.091
5/6/26 - 1300 67.4 63 54.2 60.0 NNE | 26 5.3 11.2 0.0 942 0.023 13.0 0.00 - - - 0.00 55.1 69.1 0.0 0.068
5/6/26 - 1200 65.2 66 53.7 59.0 NNE | 21 4.1 12.3 0.0 870 0.020 13.0 0.00 - - - 0.00 55.1 66.9 0.0 0.045
5/6/26 - 1100 62.0 74 53.7 58.0 NNE | 27 3.1 9.0 0.0 566 0.013 13.0 0.00 - - - 0.00 55.1 63.9 0.0 0.025
5/6/26 - 1000 59.2 80 53.1 56.6 N | 356 1.7 5.0 0.0 288 0.007 13.0 0.00 - - - 0.00 55.1 60.8 0.0 0.012
5/6/26 - 0900 57.6 84 52.7 55.7 W | 261 1.9 4.6 0.0 154 0.004 12.8 0.00 - - - 0.00 55.1 58.4 0.0 0.005
5/6/26 - 0800 56.3 86 52.1 54.9 SW | 226 0.9 2.6 0.0 59 0.001 12.4 0.00 - - - 0.00 55.1 56.9 0.0 0.002
5/6/26 - 0700 55.6 87 51.8 54.4 S | 191 0.7 2.4 0.0 10 0.000 12.3 0.00 - - - 0.00 55.1 55.9 0.0 0.000
5/6/26 - 0600 55.4 87 51.7 54.3 SSW | 196 1.1 2.4 0.0 0 0.000 12.3 0.00 - - - 0.00 55.1 55.7 0.0 0.000
5/6/26 - 0500 55.3 87 51.5 54.1 SSW | 201 1.1 2.8 0.0 0 0.000 12.3 0.00 - - - 0.00 55.1 55.4 0.0 0.000
5/6/26 - 0400 55.3 86 51.4 54.0 SSW | 195 1.3 3.1 0.0 0 0.000 12.3 0.00 - - - 0.00 55.1 55.4 0.0 0.000
5/6/26 - 0300 55.2 86 51.2 53.8 SSW | 194 1.6 3.9 0.0 0 0.000 12.3 0.00 - - - 0.00 55.1 55.4 0.0 0.000
5/6/26 - 0200 55.3 86 51.2 53.9 S | 175 1.5 3.9 0.0 0 0.000 12.3 0.00 - - - 0.00 55.1 55.4 0.0 0.000
5/6/26 - 0100 55.5 85 51.1 53.9 S | 188 1.6 4.4 0.0 0 0.000 12.3 0.00 - - - 0.00 47.8 71.6 0.0 0.166
5/6/26 - 0000 55.1 85 50.8 53.5 SSW | 194 1.9 5.5 0.0 0 0.000 12.3 0.00 - - - 0.00 47.8 71.6 0.0 0.166
5/5/26 - 2300 55.5 84 50.7 53.6 S | 190 2.8 6.6 0.0 0 0.000 12.3 0.00 - - - 0.00 47.8 71.6 0.0 0.166
5/5/26 - 2200 57.2 79 50.9 54.4 SSW | 196 4.3 8.8 0.0 0 0.000 12.4 0.00 - - - 0.00 47.8 71.6 0.0 0.166
5/5/26 - 2100 59.0 75 51.0 55.2 SSW | 207 6.4 12.7 0.0 1 0.001 12.4 0.00 - 0.06 0.11 0.00 47.8 71.6 0.0 0.166
5/5/26 - 2000 61.9 70 52.2 57.0 SSW | 210 7.7 14.0 0.0 40 0.002 12.4 0.00 - 0.06 0.11 0.00 47.8 71.6 0.0 0.165
5/5/26 - 1900 65.1 66 53.3 58.8 SW | 216 8.0 15.8 0.0 159 0.005 13.1 0.00 - 0.06 0.11 0.00 47.8 71.6 0.0 0.163
5/5/26 - 1800 68.3 60 53.7 59.9 SW | 216 7.4 14.5 0.0 298 0.009 13.0 0.00 - 0.06 0.11 0.00 47.8 71.6 0.0 0.158
5/5/26 - 1700 70.0 56 53.7 60.4 SSW | 213 6.8 14.7 0.0 611 0.016 12.9 0.00 - 0.06 0.11 0.00 47.8 71.6 0.0 0.148
5/5/26 - 1600 69.6 56 53.3 60.0 SSW | 210 5.9 12.7 0.0 616 0.016 13.0 0.00 - 0.06 0.11 0.00 47.8 70.5 0.0 0.132
5/5/26 - 1500 68.8 56 52.7 59.4 WSW | 241 3.6 11.2 0.0 869 0.022 12.9 0.00 - 0.06 0.11 0.00 47.8 70.5 0.0 0.116
5/5/26 - 1400 66.3 58 51.0 57.7 NNE | 26 4.6 11.2 0.0 900 0.022 13.0 0.00 - 0.06 0.11 0.00 47.8 67.3 0.0 0.094
5/5/26 - 1300 63.6 60 49.7 56.1 N | 8 3.7 10.1 0.0 934 0.022 13.0 0.00 - 0.10 0.11 0.00 47.8 65.1 0.0 0.073
5/5/26 - 1200 61.2 67 50.2 55.5 N | 352 3.4 9.0 0.0 861 0.019 13.0 0.00 - 0.11 0.11 0.00 47.8 62.5 0.0 0.051
5/5/26 - 1100 57.8 76 50.3 54.3 NE | 40 2.8 8.6 0.0 736 0.015 13.0 0.00 - 0.11 0.11 0.00 47.8 60.0 0.0 0.032
5/5/26 - 1000 55.5 79 49.0 52.6 ESE | 102 1.9 5.3 0.0 465 0.009 13.0 0.00 - 0.11 0.11 0.00 47.8 56.4 0.0 0.016
5/5/26 - 0900 52.3 85 47.8 50.6 SSW | 210 1.7 5.5 0.0 264 0.005 13.1 0.00 - 0.11 0.11 0.00 47.8 54.8 0.0 0.007
5/5/26 - 0800 50.0 91 47.5 49.3 SSW | 212 2.1 5.0 0.0 63 0.001 12.5 0.00 - 0.11 0.11 0.00 47.8 50.9 0.0 0.002
5/5/26 - 0700 48.7 94 47.2 48.5 SSW | 192 2.1 4.6 0.0 14 0.000 12.3 0.00 - 0.11 0.11 0.00 47.8 50.9 0.0 0.001
5/5/26 - 0600 48.1 95 46.9 48.1 S | 174 1.6 3.9 0.0 0 0.000 12.3 0.00 - 0.11 0.11 0.00 47.8 50.9 0.0 0.001
5/5/26 - 0500 48.5 95 47.1 48.4 S | 183 1.5 4.2 0.0 0 0.000 12.3 0.00 - 0.11 0.11 0.00 48.1 50.9 0.0 0.001
5/5/26 - 0400 49.3 93 47.4 48.9 SSE | 164 1.6 4.2 0.0 0 0.000 12.3 0.00 - 0.11 0.11 0.00 49.1 50.9 0.0 0.001
5/5/26 - 0300 50.3 88 47.1 49.3 WSW | 244 2.3 6.1 0.0 0 0.000 12.3 0.00 - 0.11 0.11 0.00 49.7 50.9 0.0 0.000
5/5/26 - 0200 50.5 91 47.9 49.8 SW | 233 3.1 6.1 0.0 0 0.000 12.3 0.00 - 0.11 0.11 0.00 50.2 50.9 0.0 0.000
5/5/26 - 0100 51.0 87 47.2 49.6 W | 271 3.8 8.6 0.0 0 0.000 12.3 0.00 - 0.11 0.11 0.11 50.7 58.1 3.1 0.056
5/5/26 - 0000 51.1 86 47.1 49.6 W | 275 5.3 16.2 0.0 0 0.000 12.3 0.00 - 0.11 0.11 0.11 50.7 58.1 3.1 0.055
5/4/26 - 2300 51.4 87 47.7 50.1 W | 278 5.2 12.9 23.2 0 0.000 12.3 0.00 - 0.11 0.11 0.11 50.7 58.1 3.1 0.055
5/4/26 - 2200 52.0 89 48.7 51.0 WNW | 283 5.5 13.6 35.7 0 0.000 12.3 0.06 0.35 0.11 0.11 0.11 50.7 58.1 2.7 0.054
5/4/26 - 2100 53.5 87 49.6 52.1 W | 278 5.0 12.3 0.0 1 0.000 12.3 0.00 - 0.05 - 0.05 50.7 58.1 2.1 0.054
5/4/26 - 2000 54.2 85 50.0 52.7 SW | 231 5.5 11.8 0.0 17 0.001 12.4 0.00 - 0.05 - 0.05 50.7 58.1 2.1 0.054
5/4/26 - 1900 54.9 85 50.5 53.3 SSW | 210 5.9 11.0 0.0 21 0.001 12.4 0.00 - 0.05 - 0.05 50.7 58.1 2.1 0.052
5/4/26 - 1800 55.7 85 51.2 54.0 SSW | 207 5.1 9.4 0.7 61 0.002 12.8 0.00 - 0.05 - 0.05 50.7 58.1 2.1 0.051
5/4/26 - 1700 56.8 82 51.3 54.6 SSW | 199 5.2 9.2 0.0 102 0.003 13.2 0.00 - 0.05 - 0.05 50.7 58.1 2.1 0.049
5/4/26 - 1600 57.4 81 51.7 55.0 S | 189 4.6 9.6 0.0 276 0.007 13.2 0.00 - 0.05 - 0.05 50.7 58.1 2.1 0.046
5/4/26 - 1500 55.2 89 52.0 54.4 SSW | 206 3.9 8.3 43.8 277 0.006 13.2 0.00 - 0.05 - 0.05 50.7 57.9 2.1 0.039
5/4/26 - 1400 54.6 88 51.2 53.6 N | 353 2.2 6.6 60.0 120 0.003 13.2 0.04 0.06 0.05 - 0.05 50.7 57.9 1.4 0.033
5/4/26 - 1300 55.9 79 49.5 53.1 N | 356 5.0 10.5 21.5 156 0.004 13.2 0.01 0.01 0.01 - 0.01 50.7 57.9 0.4 0.030
5/4/26 - 1200 56.7 74 48.7 52.9 NNW | 340 4.2 8.6 0.0 275 0.007 13.1 0.00 - - - 0.00 50.7 57.9 0.0 0.026
5/4/26 - 1100 56.1 73 47.6 52.1 N | 351 3.3 7.2 0.0 222 0.006 13.2 0.00 - - - 0.00 50.7 57.3 0.0 0.019
5/4/26 - 1000 55.8 74 47.6 52.0 WNW | 302 3.3 7.9 0.0 311 0.007 13.1 0.00 - - - 0.00 50.7 57.3 0.0 0.013
5/4/26 - 0900 53.6 79 47.2 50.8 WSW | 237 2.3 6.1 0.0 238 0.005 13.1 0.00 - - - 0.00 50.7 55.1 0.0 0.007
5/4/26 - 0800 51.6 86 47.6 50.2 SSW | 202 2.5 6.1 0.0 77 0.002 12.4 0.00 - - - 0.00 50.7 53.1 0.0 0.002
5/4/26 - 0700 51.5 86 47.4 49.9 W | 266 3.9 8.8 0.0 14 0.000 12.3 0.00 - - - 0.00 50.7 53.1 0.0 0.000
5/4/26 - 0600 52.5 83 47.6 50.6 WSW | 245 2.0 8.1 0.0 0 0.000 12.3 0.00 - - - 0.00 52.3 53.1 0.0 0.000
5/4/26 - 0500 52.6 83 47.7 50.6 SW | 222 1.0 3.7 0.0 0 0.000 12.3 0.00 - - - 0.00 52.5 53.1 0.0 0.000
5/4/26 - 0400 52.7 82 47.4 50.5 SW | 232 1.7 3.7 0.0 0 0.000 12.3 0.00 - - - 0.00 52.5 53.1 0.0 0.000
5/4/26 - 0300 53.0 81 47.4 50.6 W | 272 1.5 3.5 0.0 0 0.000 12.3 0.00 - - - 0.00 52.5 53.1 0.0 0.000
5/4/26 - 0200 52.7 83 47.8 50.8 WNW | 293 1.9 5.0 0.0 0 0.000 12.3 0.00 - - - 0.00 52.5 53.0 0.0 0.000
5/4/26 - 0100 53.0 83 48.0 51.0 NW | 325 3.7 9.0 0.0 0 0.000 12.3 0.00 - - - 0.00 47.2 67.4 0.0 0.140
5/4/26 - 0000 54.2 78 47.4 51.2 W | 260 3.0 5.5 0.0 0 0.000 12.3 0.00 - - - 0.00 47.2 67.4 0.0 0.139
5/3/26 - 2300 54.4 74 46.4 50.7 SW | 227 2.6 5.9 0.0 0 0.000 12.3 0.00 - - - 0.00 47.2 67.4 0.0 0.139
5/3/26 - 2200 54.5 73 46.1 50.6 SW | 228 3.6 7.9 0.0 0 0.000 12.3 0.00 - - - 0.00 47.2 67.4 0.0 0.139
5/3/26 - 2100 54.9 74 46.8 51.1 SW | 233 5.0 10.5 0.0 1 0.001 12.4 0.00 - - - 0.00 47.2 67.4 0.0 0.138
5/3/26 - 2000 56.6 72 47.8 52.4 SW | 235 5.5 12.1 0.0 12 0.002 12.4 0.00 - - - 0.00 47.2 67.4 0.0 0.138
5/3/26 - 1900 58.9 66 47.5 53.1 SSW | 212 7.9 16.0 0.0 80 0.004 12.7 0.00 - - - 0.00 47.2 67.4 0.0 0.136
5/3/26 - 1800 62.5 60 48.3 54.8 SSW | 204 8.5 15.8 0.0 222 0.008 13.1 0.00 - - - 0.00 47.2 67.4 0.0 0.132
5/3/26 - 1700 65.3 56 49.4 56.4 SSW | 210 8.0 14.7 0.0 590 0.015 13.0 0.00 - - - 0.00 47.2 67.4 0.0 0.124
5/3/26 - 1600 66.2 58 51.2 57.8 SW | 228 6.9 14.2 0.0 771 0.019 13.0 0.00 - - - 0.00 47.2 67.4 0.0 0.109
5/3/26 - 1500 64.2 62 50.8 56.9 SW | 231 5.5 12.1 0.0 714 0.017 13.0 0.00 - - - 0.00 47.2 66.3 0.0 0.091
5/3/26 - 1400 63.8 63 51.0 56.9 SW | 215 6.4 15.6 0.0 778 0.018 13.0 0.00 - - - 0.00 47.2 65.6 0.0 0.074
5/3/26 - 1300 62.2 65 50.2 55.9 SW | 228 4.3 10.1 0.0 710 0.017 13.0 0.00 - - - 0.00 47.2 63.7 0.0 0.056
5/3/26 - 1200 60.6 67 49.8 55.1 WNW | 290 3.9 9.9 0.0 648 0.015 13.0 0.00 - - - 0.00 47.2 62.3 0.0 0.039
5/3/26 - 1100 58.6 71 49.1 54.0 WSW | 254 2.8 7.0 0.0 606 0.013 13.0 0.00 - - - 0.00 47.2 60.7 0.0 0.024
5/3/26 - 1000 55.5 79 49.1 52.7 SW | 232 3.1 6.8 0.0 312 0.007 13.0 0.00 - - - 0.00 47.2 57.0 0.0 0.011
5/3/26 - 0900 53.1 84 48.3 51.2 SSW | 192 1.2 3.5 0.0 141 0.003 12.7 0.00 - - - 0.00 47.2 54.3 0.0 0.004
5/3/26 - 0800 51.3 88 47.8 50.1 SSW | 197 1.4 3.5 0.0 60 0.001 12.4 0.00 - - - 0.00 47.2 52.3 0.0 0.001
5/3/26 - 0700 49.3 89 46.3 48.4 S | 187 1.0 3.5 0.0 15 0.000 12.3 0.00 - - - 0.00 47.2 50.7 0.0 0.000
5/3/26 - 0600 47.6 91 45.2 46.9 SSE | 168 1.0 2.6 0.0 0 0.000 12.3 0.00 - - - 0.00 47.2 50.7 0.0 0.000
5/3/26 - 0500 47.6 91 45.1 46.9 SW | 230 0.1 1.3 0.0 0 0.000 12.3 0.00 - - - 0.00 47.4 50.7 0.0 0.000
5/3/26 - 0400 48.6 89 45.5 47.5 S | 191 0.7 3.3 0.0 0 0.000 12.3 0.00 - - - 0.00 47.7 50.7 0.0 0.000
5/3/26 - 0300 49.1 90 46.4 48.3 S | 188 0.8 2.6 0.0 0 0.000 12.3 0.00 - - - 0.00 48.6 50.7 0.0 0.000
5/3/26 - 0200 50.2 91 47.6 49.5 S | 181 0.7 2.4 0.0 0 0.000 12.3 0.00 - - - 0.00 49.9 50.7 0.0 0.000
5/3/26 - 0100 51.5 89 48.5 50.6 S | 186 1.1 3.3 0.0 0 0.000 12.3 0.00 - - - 0.00 48.8 78.9 0.0 0.198
5/3/26 - 0000 53.0 87 49.3 51.8 S | 178 1.1 3.1 0.0 0 0.000 12.3 0.00 - - - 0.00 48.8 78.9 0.0 0.198
5/2/26 - 2300 54.5 84 49.7 52.7 S | 188 2.4 4.4 0.0 0 0.000 12.3 0.00 - - - 0.00 48.8 78.9 0.0 0.198
5/2/26 - 2200 56.2 81 50.6 53.9 S | 181 2.7 6.6 0.0 0 0.000 12.3 0.00 - - - 0.00 48.8 78.9 0.0 0.198
5/2/26 - 2100 59.1 73 50.3 54.8 SSW | 198 3.0 7.0 0.0 1 0.000 12.4 0.00 - - - 0.00 48.8 78.9 0.0 0.198
5/2/26 - 2000 63.9 57 48.4 55.4 SW | 214 3.0 6.6 0.0 49 0.001 12.4 0.00 - - - 0.00 48.8 78.9 0.0 0.198
5/2/26 - 1900 67.2 49 47.6 56.1 SW | 216 5.1 10.1 0.0 202 0.006 13.1 0.00 - - - 0.00 48.8 78.9 0.0 0.198
5/2/26 - 1800 69.1 42 44.9 55.3 SSW | 207 8.1 15.6 0.0 374 0.012 13.0 0.00 - - - 0.00 48.8 78.9 0.0 0.192
5/2/26 - 1700 73.2 33 42.6 55.4 SW | 236 7.2 13.4 0.0 551 0.017 13.0 0.00 - - - 0.00 48.8 78.9 0.0 0.179
5/2/26 - 1600 74.7 29 40.7 55.0 SW | 222 7.5 16.9 0.0 775 0.023 12.9 0.00 - - - 0.00 48.8 78.9 0.0 0.162
5/2/26 - 1500 76.9 24 37.4 54.5 SW | 222 8.0 16.9 0.0 854 0.027 12.9 0.00 - - - 0.00 48.8 78.9 0.0 0.139
5/2/26 - 1400 77.0 31 43.4 57.0 SE | 127 6.2 14.0 0.0 903 0.027 12.9 0.00 - - - 0.00 48.8 78.9 0.0 0.112
5/2/26 - 1300 74.3 36 45.5 57.1 NE | 49 7.8 14.5 0.0 952 0.027 12.9 0.00 - - - 0.00 48.8 77.1 0.0 0.086
5/2/26 - 1200 69.3 52 50.7 58.4 NE | 51 4.4 10.5 0.0 865 0.022 13.0 0.00 - - - 0.00 48.8 71.4 0.0 0.059
5/2/26 - 1100 65.3 65 53.1 58.7 NE | 38 3.7 9.2 0.0 768 0.018 13.0 0.00 - - - 0.00 48.8 67.0 0.0 0.037
5/2/26 - 1000 62.2 70 52.3 57.2 NNE | 27 2.0 6.6 0.0 484 0.011 13.0 0.00 - - - 0.00 48.8 64.2 0.0 0.019
5/2/26 - 0900 56.9 77 49.8 53.7 S | 187 1.9 4.6 0.0 335 0.006 13.0 0.00 - - - 0.00 48.8 61.1 0.0 0.008
5/2/26 - 0800 51.3 86 47.4 49.9 SSW | 201 0.9 2.6 0.0 116 0.002 12.5 0.00 - - - 0.00 48.8 54.3 0.0 0.002
5/2/26 - 0700 50.0 88 46.7 48.9 S | 186 1.3 5.5 0.0 15 0.000 12.3 0.00 - - - 0.00 48.8 54.3 0.0 0.000
5/2/26 - 0600 50.1 90 47.4 49.3 S | 182 1.1 3.9 0.0 0 0.000 12.3 0.00 - - - 0.00 48.8 54.3 0.0 0.000
5/2/26 - 0500 49.4 93 47.5 49.1 SSW | 205 0.8 2.6 0.0 0 0.000 12.3 0.00 - - - 0.00 48.8 54.3 0.0 0.000
5/2/26 - 0400 50.4 92 48.2 49.9 SSW | 213 0.8 2.8 0.0 0 0.000 12.3 0.00 - - - 0.00 49.6 54.3 0.0 0.000
5/2/26 - 0300 51.8 90 49.0 51.1 SSW | 192 1.3 4.4 0.0 0 0.000 12.3 0.00 - - - 0.00 51.1 54.3 0.0 0.000
5/2/26 - 0200 53.3 90 50.5 52.6 S | 190 0.9 3.1 0.0 0 0.000 12.3 0.00 - - - 0.00 51.8 54.3 0.0 0.000
5/2/26 - 0100 55.6 88 51.9 54.4 WSW | 237 1.2 3.9 0.0 0 0.000 12.3 0.00 - - - 0.00 44.9 83.1 0.0 0.198
5/2/26 - 0000 59.0 83 53.9 57.0 S | 184 2.4 5.3 0.0 0 0.000 12.3 0.00 - - - 0.00 44.9 83.1 0.0 0.198
5/1/26 - 2300 60.5 79 54.0 57.6 S | 173 1.6 3.7 0.0 0 0.000 12.3 0.00 - - - 0.00 44.9 83.1 0.0 0.198
5/1/26 - 2200 64.2 72 54.8 59.4 SW | 232 2.6 5.9 0.0 0 0.000 12.3 0.00 - - - 0.00 44.9 83.1 0.0 0.198
5/1/26 - 2100 66.9 68 56.1 61.1 SW | 220 1.8 4.6 0.0 1 0.000 12.4 0.00 - - - 0.00 44.9 83.1 0.0 0.198
5/1/26 - 2000 72.2 58 56.6 62.9 SSW | 210 4.0 11.6 0.0 46 0.002 12.4 0.00 - - - 0.00 44.9 83.1 0.0 0.198
5/1/26 - 1900 77.0 39 50.0 60.0 SSW | 212 5.9 11.0 0.0 151 0.008 13.0 0.00 - - - 0.00 44.9 83.1 0.0 0.197
5/1/26 - 1800 81.1 28 44.7 58.3 SW | 227 6.3 12.7 0.0 450 0.016 12.9 0.00 - - - 0.00 44.9 83.1 0.0 0.189
5/1/26 - 1700 82.1 28 45.4 58.9 WSW | 248 5.2 10.7 0.0 609 0.019 12.9 0.00 - - - 0.00 44.9 83.1 0.0 0.173
5/1/26 - 1600 81.9 29 46.3 59.2 WSW | 239 5.6 11.0 0.0 632 0.021 12.9 0.00 - - - 0.00 44.9 83.1 0.0 0.154
5/1/26 - 1500 80.8 31 47.7 59.7 NNW | 340 4.2 10.3 0.0 754 0.023 12.9 0.00 - - - 0.00 44.9 82.7 0.0 0.133
5/1/26 - 1400 79.2 39 52.0 61.6 NNE | 21 5.3 11.0 0.0 787 0.024 12.9 0.00 - - - 0.00 44.9 80.2 0.0 0.110
5/1/26 - 1300 77.1 41 51.8 61.0 NNE | 19 3.3 7.0 0.0 863 0.024 12.9 0.00 - - - 0.00 44.9 79.1 0.0 0.086
5/1/26 - 1200 71.9 48 50.8 59.2 NNE | 22 4.0 7.9 0.0 819 0.022 12.9 0.00 - - - 0.00 44.9 74.6 0.0 0.062
5/1/26 - 1100 68.1 54 50.7 58.1 N | 3 3.0 6.8 0.0 712 0.018 12.9 0.00 - - - 0.00 44.9 70.3 0.0 0.040
5/1/26 - 1000 65.1 57 49.3 56.4 N | 10 2.2 5.7 0.0 561 0.013 12.9 0.00 - - - 0.00 44.9 66.8 0.0 0.023
5/1/26 - 0900 60.1 62 47.0 53.3 WSW | 249 1.1 3.3 0.0 393 0.008 13.0 0.00 - - - 0.00 44.9 62.8 0.0 0.010
5/1/26 - 0800 51.4 78 44.9 48.5 NNE | 28 0.6 2.6 0.0 179 0.002 12.4 0.00 - - - 0.00 44.9 56.4 0.0 0.002
5/1/26 - 0700 45.8 90 43.0 44.8 S | 174 0.7 2.2 0.0 31 0.000 12.3 0.00 - - - 0.00 44.9 53.1 0.0 0.000
5/1/26 - 0600 45.7 89 42.7 44.6 SW | 220 1.1 2.2 0.0 0 0.000 12.2 0.00 - - - 0.00 45.2 53.1 0.0 0.000
5/1/26 - 0500 46.7 87 43.1 45.3 SSW | 205 0.8 2.2 0.0 0 0.000 12.3 0.00 - - - 0.00 45.9 53.1 0.0 0.000
5/1/26 - 0400 48.2 84 43.7 46.4 S | 186 0.7 3.3 0.0 0 0.000 12.3 0.00 - - - 0.00 47.2 53.1 0.0 0.000
5/1/26 - 0300 49.3 81 43.7 47.0 S | 183 0.9 3.5 0.0 0 0.000 12.3 0.00 - - - 0.00 48.5 53.1 0.0 0.000
5/1/26 - 0200 51.2 76 43.8 47.8 SW | 222 1.1 2.8 0.0 0 0.000 12.3 0.00 - - - 0.00 49.8 53.1 0.0 0.000
5/1/26 - 0100 54.9 68 44.6 49.9 S | 189 1.7 4.8 0.0 0 0.000 12.3 0.00 - - - 0.00 40.3 82.6 0.0 0.212
5/1/26 - 0000 56.9 68 46.5 51.8 S | 188 3.0 6.6 0.0 0 0.000 12.3 0.00 - - - 0.00 40.3 82.6 0.0 0.212
4/30/26 - 2300 59.4 64 47.2 53.2 S | 179 3.4 6.1 0.0 0 0.000 12.3 0.00 - - - 0.00 40.3 82.6 0.0 0.212
4/30/26 - 2200 61.6 60 47.6 54.2 S | 184 2.4 4.4 0.0 0 0.000 12.3 0.00 - - - 0.00 40.3 82.6 0.0 0.212
4/30/26 - 2100 67.4 45 45.1 54.9 SW | 217 2.5 7.0 0.0 1 0.000 12.4 0.00 - - - 0.00 40.3 82.6 0.0 0.212
4/30/26 - 2000 74.2 35 44.9 56.7 W | 275 4.0 10.5 0.0 64 0.002 12.4 0.00 - - - 0.00 40.3 82.6 0.0 0.212
4/30/26 - 1900 78.0 37 49.6 60.0 W | 259 7.1 16.4 0.0 239 0.010 13.0 0.00 - - - 0.00 40.3 82.6 0.0 0.209
4/30/26 - 1800 81.4 34 50.6 61.3 W | 264 6.1 12.7 0.0 443 0.015 12.9 0.00 - - - 0.00 40.3 82.6 0.0 0.200
4/30/26 - 1700 81.8 28 45.3 58.8 NNW | 334 5.1 11.2 0.0 626 0.020 12.9 0.00 - - - 0.00 40.3 82.6 0.0 0.185
4/30/26 - 1600 81.5 24 41.7 57.2 N | 354 4.4 10.5 0.0 795 0.024 12.8 0.00 - - - 0.00 40.3 82.4 0.0 0.165
4/30/26 - 1500 80.7 22 38.9 55.9 N | 351 4.2 9.6 0.0 906 0.027 12.9 0.00 - - - 0.00 40.3 82.4 0.0 0.141
4/30/26 - 1400 77.8 32 45.0 57.8 N | 9 4.1 8.6 0.0 960 0.027 12.9 0.00 - - - 0.00 40.3 80.0 0.0 0.115
4/30/26 - 1300 74.5 39 47.9 58.3 NNE | 12 4.6 9.0 0.0 946 0.026 12.9 0.00 - - - 0.00 40.3 77.5 0.0 0.087
4/30/26 - 1200 70.1 42 45.8 56.0 N | 8 4.2 7.9 0.0 877 0.023 13.0 0.00 - - - 0.00 40.3 72.3 0.0 0.062
4/30/26 - 1100 65.8 47 44.8 54.1 NNE | 25 2.7 6.6 0.0 756 0.018 13.0 0.00 - - - 0.00 40.3 68.6 0.0 0.039
Max 82.1 97 57.6 64.8 - 8.5 16.9 60.0 960 0.027 13.2 0.06 0.35 0.11 0.11 0.11 55.1 83.1 5.8 0.212
Avg 59.9 71 49.1 54.1 - 3.3 7.6 3.2 259 0.007 12.6 0.00 0.14 0.08 0.11 - - - - -
Min 45.7 22 37.4 44.6 - 0.1 1.3 0.0 0 0.000 12.2 0.00 0.01 0.01 0.11 0.00 40.3 50.7 0.0 0.000
Total - - - - - - - - - 1.147 - 0.11 - - - - - - - -